Terminal Aerodrome Forecast
Issued by NWS

Home | Current Version | Previous Version | Text Only | Print | Product List | Glossary On
Versions: 1 2 3 4 5 6 7 8 9 10 11 12 13
000
FTUS46 KSGX 211100
TAFPSP
TAF
KPSP 211126Z 2112/2212 VRB05KT P6SM SKC
     FM220200 32011KT P6SM SKC
     FM220600 VRB05KT P6SM SKC=

USA.gov is the U.S. government's official web portal to all federal, state and local government web resources and services.